Time;durP1;ratioP1;P1;durP2;ratioP2;P2;SDS_P1;SDS_P2;PMS_P1;PMS_P2;Temp;Humidity;BMP_temperature;BMP_pressure;BME280_temperature;BME280_humidity;BME280_pressure;Samples;Min_cycle;Max_cycle;Signal;HPM_P1;HPM_P2
2023/12/08 00:01:33;;;;;;;15.82;7.28;;;;;;;-6.48;100.00;100264.88;5119331;28;20078;-62
2023/12/08 00:04:00;;;;;;;14.80;6.95;;;;;;;-6.29;100.00;100279.00;5117223;28;20467;-57
2023/12/08 00:06:26;;;;;;;17.70;8.35;;;;;;;-6.46;100.00;100254.78;5119109;28;20060;-63
2023/12/08 00:08:52;;;;;;;20.90;8.32;;;;;;;-6.35;100.00;100268.41;5116783;28;20051;-59
2023/12/08 00:11:19;;;;;;;18.60;8.85;;;;;;;-6.17;100.00;100263.81;5119163;28;20420;-58
2023/12/08 00:13:45;;;;;;;25.38;9.65;;;;;;;-6.35;100.00;100233.72;5116879;28;20139;-61
2023/12/08 00:16:11;;;;;;;15.18;7.07;;;;;;;-6.21;100.00;100224.47;5118147;28;20373;-58
2023/12/08 00:18:38;;;;;;;19.88;8.40;;;;;;;-6.25;100.00;100215.28;5117468;28;20056;-61
2023/12/08 00:21:05;;;;;;;21.75;8.60;;;;;;;-6.20;100.00;100208.25;5116498;28;20098;-58
2023/12/08 00:23:31;;;;;;;17.85;8.40;;;;;;;-6.43;100.00;100182.31;5118924;28;20378;-60
2023/12/08 00:25:58;;;;;;;21.63;9.02;;;;;;;-6.39;100.00;100230.69;5116359;28;20437;-60
2023/12/08 00:28:24;;;;;;;21.48;8.60;;;;;;;-6.32;100.00;100243.94;5118645;28;20108;-62
2023/12/08 00:30:51;;;;;;;25.80;8.35;;;;;;;-6.08;100.00;100226.94;5116213;28;20457;-58
2023/12/08 00:33:17;;;;;;;22.83;7.90;;;;;;;-6.44;100.00;100193.19;5119087;28;20056;-63
2023/12/08 00:35:44;;;;;;;19.92;7.10;;;;;;;-6.83;100.00;100191.88;5116394;28;20055;-58
2023/12/08 00:38:11;;;;;;;15.95;8.25;;;;;;;-6.41;100.00;100243.44;5118713;28;20143;-62
2023/12/08 00:40:37;;;;;;;11.25;6.18;;;;;;;-6.74;100.00;100231.34;5116146;28;20109;-56
2023/12/08 00:43:03;;;;;;;15.82;7.60;;;;;;;-6.19;100.00;100284.59;5119002;28;20208;-62
2023/12/08 00:45:30;;;;;;;20.77;8.73;;;;;;;-6.41;100.00;100256.78;5115913;28;20097;-58
2023/12/08 00:47:55;;;;;;;22.40;7.78;;;;;;;-6.49;100.00;100254.44;5116366;28;20076;-59
2023/12/08 00:50:22;;;;;;;24.55;7.75;;;;;;;-6.28;100.00;100277.13;5118478;28;20329;-56
2023/12/08 00:52:49;;;;;;;19.45;7.88;;;;;;;-6.63;100.00;100261.78;5116195;28;20146;-62
2023/12/08 00:55:15;;;;;;;22.77;9.65;;;;;;;-6.48;100.00;100278.19;5118413;28;20387;-56
2023/12/08 00:57:42;;;;;;;14.25;7.13;;;;;;;-6.50;100.00;100280.28;5115783;28;20060;-57
2023/12/08 01:00:09;;;;;;;16.58;6.85;;;;;;;-6.89;100.00;100278.94;5118381;28;20134;-58
2023/12/08 01:02:35;;;;;;;26.55;8.68;;;;;;;-6.58;100.00;100314.47;5115977;28;20051;-56
2023/12/08 01:05:02;;;;;;;15.18;7.00;;;;;;;-6.46;100.00;100320.69;5118273;28;20051;-58
2023/12/08 01:07:28;;;;;;;18.05;8.00;;;;;;;-6.41;100.00;100321.63;5115696;28;20055;-55
2023/12/08 01:09:56;;;;;;;7.60;3.55;;;;;;;-6.83;100.00;100293.22;5118368;28;20196;-58
2023/12/08 01:12:22;;;;;;;17.88;7.50;;;;;;;-6.45;100.00;100343.66;5115644;28;20102;-62
2023/12/08 01:14:48;;;;;;;17.10;7.85;;;;;;;-6.51;100.00;100342.69;5116977;28;20094;-58
2023/12/08 01:17:14;;;;;;;18.20;8.88;;;;;;;-6.47;100.00;100335.03;5116930;28;20159;-61
2023/12/08 01:19:41;;;;;;;14.15;6.55;;;;;;;-6.50;100.00;100333.63;5115851;28;20156;-61
2023/12/08 01:22:07;;;;;;;15.38;6.53;;;;;;;-6.71;100.00;100310.91;5118209;28;20150;-60
2023/12/08 01:24:33;;;;;;;8.93;4.85;;;;;;;-6.54;100.00;100316.44;5115712;28;20143;-62
2023/12/08 01:27:00;;;;;;;15.95;7.30;;;;;;;-6.11;100.00;100326.16;5117725;28;20087;-58
2023/12/08 01:29:27;;;;;;;15.90;6.78;;;;;;;-6.46;100.00;100275.31;5115442;28;20425;-63
2023/12/08 01:31:53;;;;;;;14.82;7.43;;;;;;;-6.70;100.00;100275.19;5117761;28;20458;-59
2023/12/08 01:34:19;;;;;;;15.95;6.85;;;;;;;-6.59;100.00;100302.97;5115369;28;20098;-62
2023/12/08 01:36:46;;;;;;;16.83;6.45;;;;;;;-6.45;100.00;100323.13;5117960;28;20142;-58
2023/12/08 01:39:12;;;;;;;12.10;5.70;;;;;;;-6.44;100.00;100322.06;5115164;28;20429;-57
2023/12/08 01:41:39;;;;;;;15.30;6.88;;;;;;;-6.70;100.00;100301.06;5117798;28;20101;-61
2023/12/08 01:44:06;;;;;;;14.95;6.85;;;;;;;-6.64;100.00;100327.66;5114596;28;20051;-64
2023/12/08 01:46:32;;;;;;;15.90;6.63;;;;;;;-6.26;100.00;100329.25;5115158;28;20114;-57
2023/12/08 01:48:59;;;;;;;10.63;5.53;;;;;;;-6.53;100.00;100320.75;5117554;28;20110;-59
2023/12/08 01:51:25;;;;;;;20.85;8.43;;;;;;;-6.32;100.00;100319.47;5115231;28;20094;-61
2023/12/08 01:53:52;;;;;;;13.80;6.32;;;;;;;-6.43;100.00;100313.03;5117573;28;20337;-62
2023/12/08 01:56:18;;;;;;;18.17;8.80;;;;;;;-6.34;100.00;100326.88;5115285;28;20087;-62
2023/12/08 01:58:45;;;;;;;16.13;7.63;;;;;;;-6.39;100.00;100310.72;5117355;28;20093;-60
2023/12/08 02:01:12;;;;;;;16.25;7.63;;;;;;;-6.61;100.00;100307.72;5114936;28;20147;-59
2023/12/08 02:03:40;;;;;;;14.82;6.20;;;;;;;-6.45;100.00;100320.44;5117650;28;20109;-61
2023/12/08 02:06:07;;;;;;;29.75;8.18;;;;;;;-6.35;100.00;100322.56;5114947;28;20079;-60
2023/12/08 02:08:33;;;;;;;17.80;7.03;;;;;;;-6.18;100.00;100334.25;5117746;28;20067;-59
2023/12/08 02:11:00;;;;;;;13.38;6.22;;;;;;;-6.45;100.00;100299.09;5114722;28;20087;-58
2023/12/08 02:13:26;;;;;;;12.98;6.70;;;;;;;-6.27;100.00;100300.09;5114839;28;20460;-61
2023/12/08 02:15:57;;;;;;;16.40;7.07;;;;;;;-6.30;100.00;100301.34;5116876;28;20090;-58
2023/12/08 02:18:25;;;;;;;17.05;7.57;;;;;;;-6.42;100.00;100271.97;5114867;28;20142;-61
2023/12/08 02:20:51;;;;;;;17.33;6.55;;;;;;;-6.47;100.00;100253.16;5116920;28;20169;-63
2023/12/08 02:23:17;;;;;;;18.98;7.68;;;;;;;-6.02;100.00;100270.59;5114771;28;20159;-61
2023/12/08 02:25:45;;;;;;;23.75;7.60;;;;;;;-6.05;100.00;100239.00;5116894;28;20083;-61
2023/12/08 02:28:11;;;;;;;17.70;7.25;;;;;;;-6.03;100.00;100227.06;5114538;28;20119;-63
2023/12/08 02:30:37;;;;;;;17.23;7.85;;;;;;;-5.86;100.00;100208.47;5117026;28;20056;-58
2023/12/08 02:33:11;;;;;;;17.05;6.60;;;;;;;-5.83;100.00;100178.66;5114450;28;20139;-60
2023/12/08 02:35:41;;;;;;;13.60;6.95;;;;;;;-5.92;100.00;100132.78;5117276;28;20058;-60
2023/12/08 02:38:09;;;;;;;20.38;7.90;;;;;;;-5.98;100.00;100107.03;5116342;28;20144;-62
2023/12/08 02:40:36;;;;;;;17.73;8.50;;;;;;;-5.85;100.00;100089.91;5114874;28;20083;-59
2023/12/08 02:43:03;;;;;;;21.00;7.97;;;;;;;-5.83;100.00;100062.97;5116525;28;20059;-59
2023/12/08 02:45:29;;;;;;;19.92;7.43;;;;;;;-5.71;100.00;100058.44;5114249;28;20098;-62
2023/12/08 02:47:55;;;;;;;17.65;7.97;;;;;;;-5.97;100.00;100025.06;5116536;28;20143;-60
2023/12/08 02:50:22;;;;;;;18.95;6.80;;;;;;;-6.12;100.00;100036.25;5114233;28;20085;-58
2023/12/08 02:52:48;;;;;;;16.27;7.38;;;;;;;-6.24;100.00;100084.28;5116705;28;20102;-62
2023/12/08 02:55:14;;;;;;;15.77;6.78;;;;;;;-6.34;100.00;100118.72;5116514;28;20443;-60
2023/12/08 02:57:41;;;;;;;17.23;8.00;;;;;;;-6.15;100.00;100162.16;5120216;28;20051;-58
2023/12/08 03:00:09;;;;;;;18.15;7.25;;;;;;;-6.33;100.00;100168.41;5118071;28;20064;-63
2023/12/08 03:02:36;;;;;;;24.05;9.23;;;;;;;-6.38;100.00;100194.16;5120524;28;20066;-59
2023/12/08 03:05:02;;;;;;;18.35;7.53;;;;;;;-6.23;100.00;100232.72;5117780;28;20388;-64
2023/12/08 03:07:29;;;;;;;17.98;7.57;;;;;;;-6.01;100.00;100242.84;5118177;28;20055;-63
2023/12/08 03:09:55;;;;;;;20.50;6.82;;;;;;;-6.41;100.00;100203.41;5120079;28;20351;-59
2023/12/08 03:12:21;;;;;;;10.52;5.03;;;;;;;-6.78;100.00;100219.50;5117846;28;20363;-58
2023/12/08 03:14:48;;;;;;;20.83;7.35;;;;;;;-6.22;100.00;100268.22;5120025;28;20142;-62
2023/12/08 03:17:15;;;;;;;16.52;8.85;;;;;;;-6.08;100.00;100258.97;5117619;28;20091;-58
2023/12/08 03:19:42;;;;;;;20.65;7.72;;;;;;;-6.10;100.00;100257.56;5119849;28;20048;-59
2023/12/08 03:22:08;;;;;;;18.45;7.85;;;;;;;-6.11;100.00;100246.06;5117416;28;20051;-57
2023/12/08 03:24:34;;;;;;;20.60;6.70;;;;;;;-5.93;100.00;100259.34;5119884;28;20412;-63
2023/12/08 03:27:01;;;;;;;26.88;9.57;;;;;;;-6.01;100.00;100214.28;5117342;28;20142;-59
2023/12/08 03:29:27;;;;;;;26.80;8.45;;;;;;;-6.09;100.00;100189.78;5119814;28;20067;-61
2023/12/08 03:31:53;;;;;;;22.05;8.13;;;;;;;-6.51;100.00;100171.94;5117307;28;20147;-61
2023/12/08 03:34:21;;;;;;;21.17;8.13;;;;;;;-6.19;100.00;100201.03;5118865;28;20087;-60
2023/12/08 03:36:47;;;;;;;19.92;9.13;;;;;;;-6.52;100.00;100190.84;5118583;28;20064;-60
2023/12/08 03:39:13;;;;;;;21.08;8.88;;;;;;;-6.31;100.00;100209.00;5117444;28;20091;-62
2023/12/08 03:41:40;;;;;;;22.35;6.97;;;;;;;-6.27;100.00;100209.34;5119594;28;20321;-61
2023/12/08 03:44:06;;;;;;;25.20;8.48;;;;;;;-6.33;100.00;100199.59;5117570;28;20116;-59
2023/12/08 03:46:33;;;;;;;16.35;6.50;;;;;;;-6.96;100.00;100208.88;5119441;28;20086;-61
2023/12/08 03:48:59;;;;;;;20.60;9.05;;;;;;;-6.54;100.00;100279.09;5117164;28;20086;-63
2023/12/08 03:51:26;;;;;;;29.05;8.93;;;;;;;-6.48;100.00;100286.22;5119418;28;20083;-58
2023/12/08 03:53:52;;;;;;;25.70;7.95;;;;;;;-6.76;100.00;100288.63;5117132;28;20082;-63
2023/12/08 03:56:19;;;;;;;16.08;6.93;;;;;;;-6.56;100.00;100309.69;5119372;28;20134;-59
2023/12/08 03:58:45;;;;;;;21.38;9.27;;;;;;;-6.59;100.00;100302.97;5116825;28;20102;-63
2023/12/08 04:01:16;;;;;;;18.88;8.32;;;;;;;-6.29;100.00;100305.66;5119525;28;20114;-61
2023/12/08 04:03:42;;;;;;;24.50;9.57;;;;;;;-6.39;100.00;100276.03;5119254;28;20051;-60
2023/12/08 04:06:09;;;;;;;18.02;7.20;;;;;;;-6.23;100.00;100240.72;5116169;28;20066;-62
2023/12/08 04:08:36;;;;;;;13.27;5.68;;;;;;;-6.40;100.00;100197.03;5119237;28;20138;-59
2023/12/08 04:11:03;;;;;;;26.98;9.32;;;;;;;-6.50;100.00;100168.22;5116691;28;20151;-62
2023/12/08 04:13:29;;;;;;;21.30;8.98;;;;;;;-6.52;100.00;100132.97;5119094;28;20435;-59
2023/12/08 04:15:55;;;;;;;22.35;8.80;;;;;;;-6.57;100.00;100158.72;5116574;28;20090;-64
2023/12/08 04:18:22;;;;;;;18.77;6.90;;;;;;;-6.66;100.00;100147.56;5119017;28;20151;-60
2023/12/08 04:20:48;;;;;;;19.52;8.27;;;;;;;-6.47;100.00;100146.44;5116350;28;20094;-62
2023/12/08 04:23:14;;;;;;;23.05;8.70;;;;;;;-6.49;100.00;100123.72;5119040;28;20138;-62
2023/12/08 04:25:41;;;;;;;21.73;7.90;;;;;;;-6.78;100.00;100085.38;5116504;28;20051;-58
2023/12/08 04:28:08;;;;;;;22.17;8.15;;;;;;;-6.23;100.00;100131.28;5118939;28;20155;-62
2023/12/08 04:30:34;;;;;;;13.77;6.97;;;;;;;-6.51;100.00;100059.91;5116300;28;20093;-59
2023/12/08 04:33:00;;;;;;;21.52;9.00;;;;;;;-6.42;100.00;100045.19;5116234;28;20062;-63
2023/12/08 04:35:27;;;;;;;22.63;8.68;;;;;;;-6.47;100.00;100049.59;5118754;28;20299;-62
2023/12/08 04:37:53;;;;;;;18.13;7.13;;;;;;;-6.69;100.00;100023.50;5116292;28;20142;-56
2023/12/08 04:40:19;;;;;;;24.88;9.00;;;;;;;-6.13;100.00;100039.13;5118291;28;20428;-62
2023/12/08 04:42:46;;;;;;;12.77;5.75;;;;;;;-6.54;100.00;99961.66;5116029;28;20056;-62
2023/12/08 04:45:14;;;;;;;16.25;6.38;;;;;;;-6.58;100.00;99951.72;5118158;28;20427;-61
2023/12/08 04:47:40;;;;;;;18.60;6.82;;;;;;;-6.56;100.00;99949.59;5116049;28;20051;-63
2023/12/08 04:50:07;;;;;;;17.73;8.32;;;;;;;-6.43;100.00;99950.19;5118311;28;20416;-62
2023/12/08 04:52:34;;;;;;;15.02;6.25;;;;;;;-6.42;100.00;99935.81;5115836;28;20066;-58
2023/12/08 04:55:01;;;;;;;14.88;6.63;;;;;;;-6.54;100.00;99897.66;5118184;28;20142;-63
2023/12/08 04:57:27;;;;;;;19.50;7.90;;;;;;;-6.45;100.00;99882.91;5115745;28;20052;-62
2023/12/08 04:59:54;;;;;;;18.50;8.00;;;;;;;-6.77;100.00;99895.81;5116662;28;20109;-62
2023/12/08 05:02:21;;;;;;;17.08;8.48;;;;;;;-6.87;100.00;99922.25;5117420;28;20047;-62
2023/12/08 05:04:47;;;;;;;16.20;6.32;;;;;;;-6.22;100.00;99979.97;5115895;28;20106;-60
2023/12/08 05:07:13;;;;;;;15.98;7.80;;;;;;;-6.46;100.00;99929.31;5117870;28;20373;-57
2023/12/08 05:09:40;;;;;;;16.50;7.65;;;;;;;-6.88;100.00;99891.31;5115680;28;20142;-63
2023/12/08 05:12:06;;;;;;;13.88;7.03;;;;;;;-6.65;100.00;99917.16;5117902;28;20117;-58
2023/12/08 05:14:33;;;;;;;16.92;6.85;;;;;;;-6.33;100.00;99930.94;5115460;28;20098;-58
2023/12/08 05:17:00;;;;;;;19.95;7.13;;;;;;;-6.31;100.00;99920.00;5117896;28;20090;-59
2023/12/08 05:19:26;;;;;;;17.27;8.23;;;;;;;-6.24;100.00;99902.00;5114356;28;20464;-60
2023/12/08 05:21:52;;;;;;;24.35;9.32;;;;;;;-6.51;100.00;99851.03;5117901;28;20138;-58
2023/12/08 05:24:19;;;;;;;19.60;7.85;;;;;;;-6.30;100.00;99852.25;5115540;28;20066;-64
2023/12/08 05:26:45;;;;;;;15.68;7.53;;;;;;;-6.39;100.00;99833.16;5117610;28;20063;-54
2023/12/08 05:29:11;;;;;;;22.42;7.97;;;;;;;-6.35;100.00;99820.94;5115557;28;20405;-60
2023/12/08 05:31:38;;;;;;;25.42;8.50;;;;;;;-6.31;100.00;99806.06;5115236;28;20440;-62
2023/12/08 05:34:05;;;;;;;29.92;9.07;;;;;;;-6.22;100.00;99803.84;5117680;28;20052;-57
2023/12/08 05:36:31;;;;;;;19.08;8.63;;;;;;;-6.26;100.00;99763.47;5115126;28;20444;-63
2023/12/08 05:38:57;;;;;;;22.30;9.32;;;;;;;-6.43;100.00;99746.59;5117452;28;20065;-64
2023/12/08 05:41:24;;;;;;;21.90;9.15;;;;;;;-6.58;100.00;99755.16;5115113;28;20052;-63
2023/12/08 05:43:50;;;;;;;18.58;7.13;;;;;;;-6.64;100.00;99772.91;5117481;28;20047;-61
2023/12/08 05:46:16;;;;;;;16.98;7.63;;;;;;;-6.44;100.00;99806.34;5114900;28;20048;-59
2023/12/08 05:48:43;;;;;;;19.63;8.40;;;;;;;-6.31;100.00;99799.94;5117311;28;20066;-64
2023/12/08 05:51:10;;;;;;;17.60;7.07;;;;;;;-6.28;100.00;99792.25;5115115;28;20051;-60
2023/12/08 05:53:36;;;;;;;10.63;5.80;;;;;;;-6.51;100.00;99758.47;5117380;28;20116;-65
2023/12/08 05:56:03;;;;;;;19.00;8.07;;;;;;;-6.24;100.00;99768.56;5114774;28;20159;-63
2023/12/08 05:58:29;;;;;;;23.77;10.00;;;;;;;-6.10;100.00;99737.84;5114641;28;20052;-64
2023/12/08 06:00:56;;;;;;;17.02;7.80;;;;;;;-6.08;100.00;99717.06;5100092;28;20063;-58
2023/12/08 06:03:22;;;;;;;21.85;8.93;;;;;;;-6.19;100.00;99686.75;5114761;28;20091;-63
2023/12/08 06:05:49;;;;;;;18.25;7.93;;;;;;;-6.37;100.00;99694.97;5117010;28;20055;-56
2023/12/08 06:08:16;;;;;;;21.60;8.55;;;;;;;-5.98;100.00;99741.25;5114565;28;20059;-61
2023/12/08 06:10:42;;;;;;;17.92;8.05;;;;;;;-5.96;100.00;99733.84;5117072;28;20078;-60
2023/12/08 06:13:09;;;;;;;17.17;8.30;;;;;;;-5.87;100.00;99712.03;5114460;28;20120;-59
2023/12/08 06:15:35;;;;;;;22.50;8.85;;;;;;;-6.16;100.00;99667.59;5117183;28;20083;-58
2023/12/08 06:18:01;;;;;;;18.52;8.73;;;;;;;-6.04;100.00;99638.13;5114389;28;20315;-63
2023/12/08 06:20:28;;;;;;;28.75;8.57;;;;;;;-5.98;100.00;99623.00;5116831;28;20052;-56
2023/12/08 06:22:54;;;;;;;17.50;8.35;;;;;;;-6.52;100.00;99590.69;5114344;28;20063;-61
2023/12/08 06:25:21;;;;;;;15.63;8.43;;;;;;;-6.23;100.00;99647.41;5116079;28;20052;-65
2023/12/08 06:27:47;;;;;;;17.02;8.10;;;;;;;-6.10;100.00;99631.09;5115427;28;20444;-60
2023/12/08 06:30:14;;;;;;;19.65;7.07;;;;;;;-6.04;100.00;99623.97;5113823;28;20067;-65
2023/12/08 06:32:41;;;;;;;19.33;8.55;;;;;;;-5.80;100.00;99608.53;5116377;28;20142;-61
2023/12/08 06:35:07;;;;;;;24.73;8.45;;;;;;;-6.07;100.00;99563.88;5114129;28;20114;-65
2023/12/08 06:37:35;;;;;;;20.48;7.82;;;;;;;-6.54;100.00;99550.09;5116654;28;20148;-66
2023/12/08 06:40:01;;;;;;;22.90;8.90;;;;;;;-6.14;100.00;99632.63;5113846;28;20173;-63
2023/12/08 06:42:28;;;;;;;16.10;7.00;;;;;;;-5.97;100.00;99632.63;5116369;28;20055;-62
2023/12/08 06:44:54;;;;;;;15.48;6.68;;;;;;;-5.91;100.00;99605.72;5114129;28;20083;-66
2023/12/08 06:47:21;;;;;;;16.05;7.65;;;;;;;-5.91;100.00;99578.22;5116685;28;20146;-63
2023/12/08 06:49:47;;;;;;;15.30;7.72;;;;;;;-6.05;100.00;99529.75;5114068;28;20060;-61
2023/12/08 06:52:13;;;;;;;11.98;6.55;;;;;;;-6.58;100.00;99535.66;5116503;28;20087;-61
2023/12/08 06:54:40;;;;;;;25.63;8.15;;;;;;;-6.01;100.00;99596.78;5113793;28;20127;-68
2023/12/08 06:57:08;;;;;;;23.13;8.05;;;;;;;-5.91;100.00;99603.03;5113648;28;20055;-63
2023/12/08 06:59:35;;;;;;;15.60;7.32;;;;;;;-5.84;100.00;99556.66;5116236;28;20060;-68
2023/12/08 07:02:01;;;;;;;16.98;8.07;;;;;;;-6.05;100.00;99540.41;5113978;28;20391;-64
2023/12/08 07:04:27;;;;;;;20.10;8.10;;;;;;;-5.83;100.00;99518.22;5115929;28;20348;-69
2023/12/08 07:06:54;;;;;;;17.15;8.55;;;;;;;-5.68;100.00;99505.06;5113534;28;20448;-63
2023/12/08 07:09:21;;;;;;;16.95;7.78;;;;;;;-5.84;100.00;99457.88;5116057;28;20463;-68
2023/12/08 07:11:47;;;;;;;22.33;9.10;;;;;;;-5.89;100.00;99471.19;5113647;28;20083;-64
2023/12/08 07:14:14;;;;;;;15.60;7.68;;;;;;;-5.59;100.00;99462.69;5116440;28;20325;-66
2023/12/08 07:16:43;;;;;;;25.80;8.82;;;;;;;-5.54;100.00;99428.00;5113668;28;20051;-70
2023/12/08 07:19:09;;;;;;;17.67;8.52;;;;;;;-5.63;100.00;99376.94;5116495;28;20420;-64
2023/12/08 07:21:42;;;;;;;21.85;8.95;;;;;;;-5.59;100.00;99375.34;5114540;28;20059;-67
2023/12/08 07:24:08;;;;;;;18.50;7.80;;;;;;;-5.86;100.00;99370.03;5115537;28;20052;-69
2023/12/08 07:26:34;;;;;;;18.25;8.63;;;;;;;-6.32;100.00;99356.22;5116583;28;20383;-65
2023/12/08 07:29:01;;;;;;;32.13;9.55;;;;;;;-5.61;100.00;99406.03;5113526;28;20083;-70
2023/12/08 07:31:27;;;;;;;18.38;7.68;;;;;;;-5.80;100.00;99387.69;5116020;28;20098;-67
2023/12/08 07:33:54;;;;;;;21.05;9.30;;;;;;;-5.61;100.00;99388.16;5113769;28;20087;-66
2023/12/08 07:36:21;;;;;;;20.75;8.88;;;;;;;-5.74;100.00;99351.97;5115843;28;20055;-67
2023/12/08 07:38:47;;;;;;;17.83;8.93;;;;;;;-5.46;100.00;99342.88;5113546;28;20421;-70
2023/12/08 07:41:14;;;;;;;22.60;8.50;;;;;;;-5.67;100.00;99323.19;5116936;28;20052;-65
2023/12/08 07:43:40;;;;;;;12.38;6.50;;;;;;;-6.43;100.00;99328.63;5117291;28;20401;-69
2023/12/08 07:46:07;;;;;;;19.00;8.80;;;;;;;-5.74;100.00;99397.38;5119992;28;20055;-67
2023/12/08 07:48:34;;;;;;;14.93;7.65;;;;;;;-6.32;100.00;99369.56;5117043;28;20055;-65
2023/12/08 07:51:01;;;;;;;22.45;8.45;;;;;;;-5.67;100.00;99423.88;5117786;28;20160;-75
2023/12/08 07:53:28;;;;;;;11.50;6.40;;;;;;;-6.24;100.00;99374.44;5102672;28;20052;-73
2023/12/08 07:55:55;;;;;;;18.95;8.25;;;;;;;-6.22;100.00;99457.72;5117050;28;20087;-70
2023/12/08 07:58:22;;;;;;;18.45;8.68;;;;;;;-5.74;100.00;99495.38;5119084;28;20060;-72
2023/12/08 08:00:50;;;;;;;21.45;9.63;;;;;;;-5.65;100.00;99445.00;5116827;28;20059;-74
2023/12/08 08:03:17;;;;;;;19.27;8.05;;;;;;;-5.86;100.00;99420.75;5119316;28;20088;-74
2023/12/08 08:05:43;;;;;;;18.95;6.97;;;;;;;-5.40;100.00;99437.22;5116868;28;20138;-65
2023/12/08 08:08:11;;;;;;;29.80;10.38;;;;;;;-5.74;100.00;99391.22;5119330;28;20062;-70
2023/12/08 08:10:38;;;;;;;22.55;9.18;;;;;;;-6.08;100.00;99382.63;5116627;28;20056;-75
2023/12/08 08:13:05;;;;;;;21.08;9.02;;;;;;;-5.56;100.00;99414.91;5119328;28;20121;-74
2023/12/08 08:15:33;;;;;;;24.23;10.25;;;;;;;-5.23;100.00;99391.69;5116737;28;20414;-66
2023/12/08 08:17:59;;;;;;;17.45;7.70;;;;;;;-5.42;100.00;99345.84;5117143;28;20325;-73
2023/12/08 08:20:26;;;;;;;22.58;8.95;;;;;;;-5.31;100.00;99331.47;5119109;28;20151;-72
2023/12/08 08:22:53;;;;;;;20.35;9.32;;;;;;;-5.01;100.00;99298.00;5115664;28;20051;-67
2023/12/08 08:25:21;;;;;;;18.48;8.50;;;;;;;-5.20;100.00;99260.19;5118541;28;20087;-66
2023/12/08 08:27:49;;;;;;;15.65;6.80;;;;;;;-5.44;100.00;99222.38;5116454;28;20109;-70
2023/12/08 08:30:16;;;;;;;21.60;9.15;;;;;;;-5.43;100.00;99226.69;5118970;28;20090;-69
2023/12/08 08:32:43;;;;;;;17.63;7.63;;;;;;;-5.13;100.00;99246.59;5116321;28;20056;-71
2023/12/08 08:35:09;;;;;;;26.02;11.20;;;;;;;-4.99;100.00;99235.19;5118908;28;20062;-65
2023/12/08 08:37:36;;;;;;;21.92;9.55;;;;;;;-5.11;100.00;99234.59;5116266;28;20052;-67
2023/12/08 08:40:05;;;;;;;24.65;10.15;;;;;;;-5.18;100.00;99226.00;5119049;28;20350;-66
2023/12/08 08:42:33;;;;;;;22.55;8.23;;;;;;;-4.71;100.00;99225.13;5116445;28;20069;-70
2023/12/08 08:45:00;;;;;;;26.40;9.88;;;;;;;-4.75;100.00;99203.44;5116878;28;20223;-75
2023/12/08 08:47:28;;;;;;;13.48;6.68;;;;;;;-5.25;100.00;99175.47;5118330;28;20056;-64
2023/12/08 08:49:55;;;;;;;19.48;7.35;;;;;;;-5.78;100.00;99190.66;5116383;28;20329;-73
2023/12/08 08:52:22;;;;;;;21.48;8.23;;;;;;;-5.94;100.00;99224.47;5118233;28;20063;-65
2023/12/08 08:54:50;;;;;;;20.30;8.27;;;;;;;-5.55;100.00;99245.56;5116302;28;20055;-73
2023/12/08 08:57:17;;;;;;;16.75;7.57;;;;;;;-5.49;100.00;99233.84;5118396;28;20060;-70
2023/12/08 08:59:45;;;;;;;15.90;8.23;;;;;;;-5.49;100.00;99217.81;5116081;28;20056;-73
2023/12/08 09:02:12;;;;;;;20.42;8.80;;;;;;;-5.52;100.00;99223.69;5118413;28;20116;-68
2023/12/08 09:04:39;;;;;;;21.58;8.45;;;;;;;-5.57;100.00;99239.66;5115993;28;20070;-73
2023/12/08 09:07:06;;;;;;;20.52;9.15;;;;;;;-5.41;100.00;99253.94;5118261;28;20428;-67
2023/12/08 09:09:33;;;;;;;23.95;8.63;;;;;;;-5.38;100.00;99240.06;5116118;28;20051;-73
2023/12/08 09:12:00;;;;;;;18.73;8.35;;;;;;;-5.45;100.00;99237.59;5116244;28;20074;-71
2023/12/08 09:14:27;;;;;;;23.52;8.18;;;;;;;-5.60;100.00;99226.00;5118382;28;20311;-65
2023/12/08 09:16:55;;;;;;;22.00;9.65;;;;;;;-5.68;100.00;99227.31;5115808;28;20146;-66
2023/12/08 09:19:23;;;;;;;21.63;7.75;;;;;;;-5.37;100.00;99265.69;5118334;28;20055;-76
2023/12/08 09:21:50;;;;;;;19.75;7.75;;;;;;;-5.37;100.00;99249.66;5116088;28;20100;-76
2023/12/08 09:24:16;;;;;;;19.15;8.70;;;;;;;-5.93;100.00;99234.09;5117975;28;20078;-63
2023/12/08 09:26:42;;;;;;;22.63;9.70;;;;;;;-5.58;100.00;99290.69;5116597;28;20066;-71
2023/12/08 09:29:09;;;;;;;20.50;8.40;;;;;;;-5.12;100.00;99294.47;5121149;28;20113;-64
2023/12/08 09:31:35;;;;;;;23.95;9.80;;;;;;;-5.04;100.00;99253.06;5118459;28;20048;-64
2023/12/08 09:34:02;;;;;;;24.83;9.38;;;;;;;-5.53;100.00;99208.72;5121289;28;20086;-62
2023/12/08 09:36:29;;;;;;;21.17;8.48;;;;;;;-5.51;100.00;99217.25;5119557;28;20055;-63
2023/12/08 09:38:55;;;;;;;21.38;8.68;;;;;;;-5.39;100.00;99226.97;5120352;28;20066;-63
2023/12/08 09:41:22;;;;;;;23.70;9.68;;;;;;;-4.87;100.00;99224.25;5120217;28;20052;-65
2023/12/08 09:43:55;;;;;;;19.20;8.68;;;;;;;-5.14;100.00;99192.34;5118335;28;20132;-70
2023/12/08 09:46:23;;;;;;;19.50;8.68;;;;;;;-4.87;100.00;99188.69;5120282;28;20055;-67
2023/12/08 09:48:51;;;;;;;6.18;3.75;;;;;;;-5.05;100.00;99173.94;5115561;28;20059;-73
2023/12/08 09:51:20;;;;;;;25.45;9.55;;;;;;;-5.33;100.00;99145.75;5117801;28;20368;-68
2023/12/08 09:53:48;;;;;;;23.63;9.13;;;;;;;-5.26;100.00;99141.78;5115454;28;20059;-66
2023/12/08 09:56:15;;;;;;;19.45;8.18;;;;;;;-5.49;100.00;99134.22;5117696;28;20058;-71
2023/12/08 09:58:42;;;;;;;22.02;8.48;;;;;;;-5.74;100.00;99149.00;5115047;28;20056;-66
2023/12/08 10:01:13;;;;;;;20.95;8.63;;;;;;;-5.56;100.00;99171.03;5117640;28;20074;-66
2023/12/08 10:03:40;;;;;;;24.60;8.90;;;;;;;-5.44;100.00;99167.06;5114534;28;20318;-72
2023/12/08 10:06:09;;;;;;;20.63;8.93;;;;;;;-5.03;100.00;99167.25;5115289;28;20060;-69
2023/12/08 10:08:37;;;;;;;22.15;11.00;;;;;;;-5.14;100.00;99138.06;5117194;28;20055;-71
2023/12/08 10:11:05;;;;;;;17.50;8.02;;;;;;;-4.61;100.00;99133.38;5115097;28;20380;-72
2023/12/08 10:13:32;;;;;;;18.52;8.15;;;;;;;-5.14;100.00;99109.47;5116850;28;20055;-69
2023/12/08 10:15:59;;;;;;;21.08;8.63;;;;;;;-5.21;100.00;99107.03;5114701;28;20066;-77
2023/12/08 10:18:27;;;;;;;23.88;9.82;;;;;;;-4.68;100.00;99106.88;5117177;28;20149;-72
2023/12/08 10:21:13;;;;;;;21.98;9.30;;;;;;;-4.76;100.00;99080.69;5114791;28;20062;-68
2023/12/08 10:23:40;;;;;;;21.25;8.18;;;;;;;-4.82;100.00;99073.72;5116798;28;20051;-77
2023/12/08 10:26:06;;;;;;;20.45;9.25;;;;;;;-5.01;100.00;99068.88;5114563;28;20052;-70
2023/12/08 10:28:34;;;;;;;19.02;9.00;;;;;;;-4.86;100.00;99075.31;5114841;28;20052;-66
2023/12/08 10:31:00;;;;;;;16.48;7.63;;;;;;;-5.02;100.00;99059.25;5100199;28;20105;-65
2023/12/08 10:33:27;;;;;;;23.98;8.80;;;;;;;-5.39;100.00;99055.97;5114425;28;20492;-71
2023/12/08 10:35:53;;;;;;;24.13;8.63;;;;;;;-5.57;100.00;99050.00;5116643;28;20052;-75
2023/12/08 10:38:21;;;;;;;12.18;5.03;;;;;;;-5.46;100.00;99061.56;5115307;28;20116;-66
2023/12/08 10:40:49;;;;;;;21.92;8.65;;;;;;;-5.25;100.00;99075.78;5117037;28;20051;-77
2023/12/08 10:43:22;;;;;;;23.63;9.73;;;;;;;-4.86;100.00;99068.09;5114650;28;20055;-72
2023/12/08 10:45:49;;;;;;;26.20;10.05;;;;;;;-4.63;100.00;99036.53;5116998;28;20329;-72
2023/12/08 10:48:19;;;;;;;21.42;9.43;;;;;;;-4.76;100.00;99045.91;5114568;28;20059;-76
2023/12/08 10:50:47;;;;;;;21.80;9.20;;;;;;;-4.88;100.00;99032.78;5117011;28;20348;-72
2023/12/08 10:53:15;;;;;;;24.67;8.23;;;;;;;-4.49;100.00;99026.91;5114165;28;20078;-68
2023/12/08 10:55:41;;;;;;;20.77;8.93;;;;;;;-4.23;100.00;99018.81;5114611;28;20060;-68
2023/12/08 10:58:14;;;;;;;26.85;8.95;;;;;;;-4.67;100.00;99017.53;5116541;28;20063;-73
2023/12/08 11:00:42;;;;;;;22.90;9.35;;;;;;;-4.32;100.00;99023.94;5114615;28;20107;-69
2023/12/08 11:03:11;;;;;;;21.25;8.95;;;;;;;-4.45;100.00;99036.00;5116869;28;20051;-69
2023/12/08 11:05:45;;;;;;;22.98;9.88;;;;;;;-4.59;100.00;99038.41;5114291;28;20096;-66
2023/12/08 11:08:16;;;;;;;19.50;7.67;;;;;;;-5.05;100.00;99034.91;5116591;28;20314;-71
2023/12/08 11:10:46;;;;;;;26.00;8.80;;;;;;;-4.58;100.00;99029.31;5114338;28;20059;-69
2023/12/08 11:13:23;;;;;;;22.42;9.43;;;;;;;-4.27;100.00;99038.09;5116620;28;20078;-67